sensor_id;sensor_type;location;lat;lon;timestamp;P1;durP1;ratioP1;P2;durP2;ratioP2
19084;SDS011;9675;51.538;6.728;2022-11-15T00:00:49;6.10;;;3.37;;
19084;SDS011;9675;51.538;6.728;2022-11-15T00:03:17;7.23;;;3.80;;
19084;SDS011;9675;51.538;6.728;2022-11-15T00:05:46;6.17;;;3.30;;
19084;SDS011;9675;51.538;6.728;2022-11-15T00:08:14;5.73;;;3.33;;
19084;SDS011;9675;51.538;6.728;2022-11-15T00:10:42;6.97;;;3.37;;
19084;SDS011;9675;51.538;6.728;2022-11-15T00:13:20;7.03;;;3.73;;
19084;SDS011;9675;51.538;6.728;2022-11-15T00:15:48;7.50;;;3.57;;
19084;SDS011;9675;51.538;6.728;2022-11-15T00:18:15;9.07;;;3.93;;
19084;SDS011;9675;51.538;6.728;2022-11-15T00:20:43;9.97;;;4.97;;
19084;SDS011;9675;51.538;6.728;2022-11-15T00:23:10;10.63;;;5.23;;
19084;SDS011;9675;51.538;6.728;2022-11-15T00:25:38;10.77;;;5.33;;
19084;SDS011;9675;51.538;6.728;2022-11-15T00:28:05;10.67;;;5.00;;
19084;SDS011;9675;51.538;6.728;2022-11-15T00:30:32;7.67;;;3.73;;
19084;SDS011;9675;51.538;6.728;2022-11-15T00:33:02;3.63;;;2.47;;
19084;SDS011;9675;51.538;6.728;2022-11-15T00:35:31;7.77;;;4.27;;
19084;SDS011;9675;51.538;6.728;2022-11-15T00:37:59;11.47;;;5.57;;
19084;SDS011;9675;51.538;6.728;2022-11-15T00:40:26;9.70;;;4.47;;
19084;SDS011;9675;51.538;6.728;2022-11-15T00:42:54;7.57;;;3.77;;
19084;SDS011;9675;51.538;6.728;2022-11-15T00:45:21;11.27;;;4.57;;
19084;SDS011;9675;51.538;6.728;2022-11-15T00:47:48;7.27;;;3.90;;
19084;SDS011;9675;51.538;6.728;2022-11-15T00:50:17;12.90;;;4.50;;
19084;SDS011;9675;51.538;6.728;2022-11-15T00:52:44;7.47;;;4.10;;
19084;SDS011;9675;51.538;6.728;2022-11-15T00:55:13;5.80;;;3.33;;
19084;SDS011;9675;51.538;6.728;2022-11-15T00:57:41;6.53;;;3.23;;
19084;SDS011;9675;51.538;6.728;2022-11-15T01:00:09;11.70;;;4.23;;
19084;SDS011;9675;51.538;6.728;2022-11-15T01:02:37;11.97;;;4.17;;
19084;SDS011;9675;51.538;6.728;2022-11-15T01:05:05;7.73;;;3.73;;
19084;SDS011;9675;51.538;6.728;2022-11-15T01:07:34;7.97;;;4.07;;
19084;SDS011;9675;51.538;6.728;2022-11-15T01:10:02;8.63;;;5.37;;
19084;SDS011;9675;51.538;6.728;2022-11-15T01:12:29;12.87;;;5.10;;
19084;SDS011;9675;51.538;6.728;2022-11-15T01:14:56;12.40;;;5.37;;
19084;SDS011;9675;51.538;6.728;2022-11-15T01:17:24;13.73;;;4.43;;
19084;SDS011;9675;51.538;6.728;2022-11-15T01:19:51;15.57;;;6.00;;
19084;SDS011;9675;51.538;6.728;2022-11-15T01:22:18;12.63;;;5.77;;
19084;SDS011;9675;51.538;6.728;2022-11-15T01:24:46;18.90;;;8.10;;
19084;SDS011;9675;51.538;6.728;2022-11-15T01:27:15;18.10;;;7.00;;
19084;SDS011;9675;51.538;6.728;2022-11-15T01:29:42;11.33;;;6.00;;
19084;SDS011;9675;51.538;6.728;2022-11-15T01:32:10;11.33;;;4.30;;
19084;SDS011;9675;51.538;6.728;2022-11-15T01:34:37;11.03;;;6.40;;
19084;SDS011;9675;51.538;6.728;2022-11-15T01:37:03;13.17;;;5.43;;
19084;SDS011;9675;51.538;6.728;2022-11-15T01:39:31;11.43;;;5.20;;
19084;SDS011;9675;51.538;6.728;2022-11-15T01:41:59;16.40;;;6.07;;
19084;SDS011;9675;51.538;6.728;2022-11-15T01:44:34;12.17;;;6.10;;
19084;SDS011;9675;51.538;6.728;2022-11-15T01:47:08;15.97;;;5.57;;
19084;SDS011;9675;51.538;6.728;2022-11-15T01:49:41;15.70;;;4.93;;
19084;SDS011;9675;51.538;6.728;2022-11-15T01:52:19;15.13;;;5.17;;
19084;SDS011;9675;51.538;6.728;2022-11-15T01:54:50;11.70;;;5.83;;
19084;SDS011;9675;51.538;6.728;2022-11-15T01:57:27;10.90;;;5.07;;
19084;SDS011;9675;51.538;6.728;2022-11-15T01:59:55;7.80;;;4.57;;
19084;SDS011;9675;51.538;6.728;2022-11-15T02:02:26;11.97;;;4.57;;
19084;SDS011;9675;51.538;6.728;2022-11-15T02:04:53;7.23;;;3.70;;
19084;SDS011;9675;51.538;6.728;2022-11-15T02:07:21;7.00;;;4.07;;
19084;SDS011;9675;51.538;6.728;2022-11-15T02:09:48;5.90;;;2.73;;
19084;SDS011;9675;51.538;6.728;2022-11-15T02:12:18;9.83;;;4.10;;
19084;SDS011;9675;51.538;6.728;2022-11-15T02:14:50;7.00;;;3.00;;
19084;SDS011;9675;51.538;6.728;2022-11-15T02:17:33;7.67;;;2.87;;
19084;SDS011;9675;51.538;6.728;2022-11-15T02:20:30;11.70;;;3.20;;
19084;SDS011;9675;51.538;6.728;2022-11-15T02:23:23;6.50;;;4.07;;
19084;SDS011;9675;51.538;6.728;2022-11-15T02:26:31;13.93;;;4.80;;
19084;SDS011;9675;51.538;6.728;2022-11-15T02:29:29;10.00;;;4.97;;
19084;SDS011;9675;51.538;6.728;2022-11-15T02:32:22;8.23;;;3.57;;
19084;SDS011;9675;51.538;6.728;2022-11-15T02:35:02;9.77;;;4.33;;
19084;SDS011;9675;51.538;6.728;2022-11-15T02:37:42;10.77;;;3.67;;
19084;SDS011;9675;51.538;6.728;2022-11-15T02:40:20;11.03;;;4.70;;
19084;SDS011;9675;51.538;6.728;2022-11-15T02:43:02;7.43;;;4.07;;
19084;SDS011;9675;51.538;6.728;2022-11-15T02:45:53;10.83;;;4.53;;
19084;SDS011;9675;51.538;6.728;2022-11-15T02:48:31;7.70;;;3.40;;
19084;SDS011;9675;51.538;6.728;2022-11-15T02:51:00;7.47;;;3.70;;
19084;SDS011;9675;51.538;6.728;2022-11-15T02:53:28;8.90;;;3.83;;
19084;SDS011;9675;51.538;6.728;2022-11-15T02:55:55;7.50;;;3.17;;
19084;SDS011;9675;51.538;6.728;2022-11-15T03:01:42;6.17;;;3.20;;
19084;SDS011;9675;51.538;6.728;2022-11-15T03:04:29;6.80;;;2.83;;
19084;SDS011;9675;51.538;6.728;2022-11-15T03:07:10;7.07;;;3.47;;
19084;SDS011;9675;51.538;6.728;2022-11-15T03:09:47;8.77;;;3.03;;
19084;SDS011;9675;51.538;6.728;2022-11-15T03:12:22;7.30;;;2.90;;
19084;SDS011;9675;51.538;6.728;2022-11-15T03:14:56;6.97;;;3.47;;
19084;SDS011;9675;51.538;6.728;2022-11-15T03:17:33;6.63;;;3.90;;
19084;SDS011;9675;51.538;6.728;2022-11-15T03:20:06;12.33;;;3.87;;
19084;SDS011;9675;51.538;6.728;2022-11-15T03:22:38;9.17;;;3.60;;
19084;SDS011;9675;51.538;6.728;2022-11-15T03:25:11;11.77;;;3.93;;
19084;SDS011;9675;51.538;6.728;2022-11-15T03:27:50;8.67;;;4.93;;
19084;SDS011;9675;51.538;6.728;2022-11-15T03:30:23;10.03;;;4.23;;
19084;SDS011;9675;51.538;6.728;2022-11-15T03:32:53;9.47;;;5.63;;
19084;SDS011;9675;51.538;6.728;2022-11-15T03:35:25;13.87;;;5.97;;
19084;SDS011;9675;51.538;6.728;2022-11-15T03:37:58;9.63;;;4.20;;
19084;SDS011;9675;51.538;6.728;2022-11-15T03:40:35;14.87;;;5.97;;
19084;SDS011;9675;51.538;6.728;2022-11-15T03:43:07;14.07;;;4.20;;
19084;SDS011;9675;51.538;6.728;2022-11-15T03:45:47;11.77;;;5.27;;
19084;SDS011;9675;51.538;6.728;2022-11-15T03:48:25;9.60;;;4.50;;
19084;SDS011;9675;51.538;6.728;2022-11-15T03:51:00;8.50;;;4.47;;
19084;SDS011;9675;51.538;6.728;2022-11-15T03:53:29;11.67;;;4.43;;
19084;SDS011;9675;51.538;6.728;2022-11-15T03:55:56;7.73;;;3.90;;
19084;SDS011;9675;51.538;6.728;2022-11-15T03:58:24;10.47;;;5.67;;
19084;SDS011;9675;51.538;6.728;2022-11-15T04:00:51;8.70;;;4.77;;
19084;SDS011;9675;51.538;6.728;2022-11-15T04:03:18;14.30;;;4.90;;
19084;SDS011;9675;51.538;6.728;2022-11-15T04:05:45;12.83;;;5.57;;
19084;SDS011;9675;51.538;6.728;2022-11-15T04:08:13;12.77;;;6.23;;
19084;SDS011;9675;51.538;6.728;2022-11-15T04:10:40;10.27;;;5.97;;
19084;SDS011;9675;51.538;6.728;2022-11-15T04:13:07;10.23;;;5.60;;
19084;SDS011;9675;51.538;6.728;2022-11-15T04:15:34;12.03;;;5.80;;
19084;SDS011;9675;51.538;6.728;2022-11-15T04:18:02;10.73;;;4.70;;
19084;SDS011;9675;51.538;6.728;2022-11-15T04:20:30;10.47;;;5.10;;
19084;SDS011;9675;51.538;6.728;2022-11-15T04:23:19;7.53;;;3.60;;
19084;SDS011;9675;51.538;6.728;2022-11-15T04:26:07;8.63;;;4.00;;
19084;SDS011;9675;51.538;6.728;2022-11-15T04:28:37;12.20;;;5.23;;
19084;SDS011;9675;51.538;6.728;2022-11-15T04:31:25;7.97;;;3.30;;
19084;SDS011;9675;51.538;6.728;2022-11-15T04:33:53;10.20;;;4.97;;
19084;SDS011;9675;51.538;6.728;2022-11-15T04:36:21;9.47;;;4.77;;
19084;SDS011;9675;51.538;6.728;2022-11-15T04:39:07;9.17;;;3.40;;
19084;SDS011;9675;51.538;6.728;2022-11-15T04:41:34;6.87;;;3.30;;
19084;SDS011;9675;51.538;6.728;2022-11-15T04:44:01;9.93;;;3.70;;
19084;SDS011;9675;51.538;6.728;2022-11-15T04:46:28;12.57;;;3.97;;
19084;SDS011;9675;51.538;6.728;2022-11-15T04:48:55;12.87;;;4.03;;
19084;SDS011;9675;51.538;6.728;2022-11-15T04:51:22;8.37;;;4.23;;
19084;SDS011;9675;51.538;6.728;2022-11-15T04:53:49;5.67;;;3.30;;
19084;SDS011;9675;51.538;6.728;2022-11-15T04:56:18;7.77;;;3.73;;
19084;SDS011;9675;51.538;6.728;2022-11-15T04:58:48;7.23;;;3.40;;
19084;SDS011;9675;51.538;6.728;2022-11-15T05:01:15;9.67;;;3.77;;
19084;SDS011;9675;51.538;6.728;2022-11-15T05:03:43;8.53;;;3.37;;
19084;SDS011;9675;51.538;6.728;2022-11-15T05:06:28;8.90;;;3.03;;
19084;SDS011;9675;51.538;6.728;2022-11-15T05:08:56;10.80;;;3.23;;
19084;SDS011;9675;51.538;6.728;2022-11-15T05:11:25;8.07;;;3.90;;
19084;SDS011;9675;51.538;6.728;2022-11-15T05:13:53;6.40;;;2.70;;
19084;SDS011;9675;51.538;6.728;2022-11-15T05:16:20;7.83;;;3.27;;
19084;SDS011;9675;51.538;6.728;2022-11-15T05:18:50;8.17;;;2.97;;
19084;SDS011;9675;51.538;6.728;2022-11-15T05:21:17;6.00;;;3.00;;
19084;SDS011;9675;51.538;6.728;2022-11-15T05:23:46;7.77;;;3.30;;
19084;SDS011;9675;51.538;6.728;2022-11-15T05:26:14;6.40;;;3.47;;
19084;SDS011;9675;51.538;6.728;2022-11-15T05:28:44;9.47;;;3.70;;
19084;SDS011;9675;51.538;6.728;2022-11-15T05:31:13;4.90;;;2.83;;
19084;SDS011;9675;51.538;6.728;2022-11-15T05:33:42;7.73;;;3.10;;
19084;SDS011;9675;51.538;6.728;2022-11-15T05:36:12;11.03;;;3.97;;
19084;SDS011;9675;51.538;6.728;2022-11-15T05:38:45;5.43;;;3.20;;
19084;SDS011;9675;51.538;6.728;2022-11-15T05:41:14;9.17;;;4.13;;
19084;SDS011;9675;51.538;6.728;2022-11-15T05:43:48;11.57;;;4.37;;
19084;SDS011;9675;51.538;6.728;2022-11-15T05:46:16;8.57;;;4.47;;
19084;SDS011;9675;51.538;6.728;2022-11-15T05:48:45;8.40;;;3.77;;
19084;SDS011;9675;51.538;6.728;2022-11-15T05:51:17;8.53;;;4.47;;
19084;SDS011;9675;51.538;6.728;2022-11-15T05:53:47;13.23;;;4.37;;
19084;SDS011;9675;51.538;6.728;2022-11-15T05:56:16;11.30;;;4.40;;
19084;SDS011;9675;51.538;6.728;2022-11-15T05:58:43;6.67;;;3.87;;
19084;SDS011;9675;51.538;6.728;2022-11-15T06:01:11;7.87;;;2.93;;
19084;SDS011;9675;51.538;6.728;2022-11-15T06:03:38;13.03;;;5.00;;
19084;SDS011;9675;51.538;6.728;2022-11-15T06:06:06;9.20;;;4.83;;
19084;SDS011;9675;51.538;6.728;2022-11-15T06:08:33;15.87;;;6.33;;
19084;SDS011;9675;51.538;6.728;2022-11-15T06:11:03;9.23;;;3.90;;
19084;SDS011;9675;51.538;6.728;2022-11-15T06:13:31;16.83;;;5.43;;
19084;SDS011;9675;51.538;6.728;2022-11-15T06:15:58;12.43;;;4.20;;
19084;SDS011;9675;51.538;6.728;2022-11-15T06:18:27;14.70;;;5.63;;
19084;SDS011;9675;51.538;6.728;2022-11-15T06:20:57;9.93;;;4.30;;
19084;SDS011;9675;51.538;6.728;2022-11-15T06:23:25;7.67;;;4.77;;
19084;SDS011;9675;51.538;6.728;2022-11-15T06:25:53;10.30;;;5.07;;
19084;SDS011;9675;51.538;6.728;2022-11-15T06:28:23;11.93;;;4.50;;
19084;SDS011;9675;51.538;6.728;2022-11-15T06:30:50;11.20;;;4.13;;
19084;SDS011;9675;51.538;6.728;2022-11-15T06:33:17;10.57;;;4.83;;
19084;SDS011;9675;51.538;6.728;2022-11-15T06:35:46;9.87;;;3.90;;
19084;SDS011;9675;51.538;6.728;2022-11-15T06:38:13;11.90;;;4.23;;
19084;SDS011;9675;51.538;6.728;2022-11-15T06:40:40;7.77;;;3.07;;
19084;SDS011;9675;51.538;6.728;2022-11-15T06:43:07;8.90;;;3.60;;
19084;SDS011;9675;51.538;6.728;2022-11-15T06:45:34;11.30;;;5.27;;
19084;SDS011;9675;51.538;6.728;2022-11-15T06:48:01;9.97;;;4.40;;
19084;SDS011;9675;51.538;6.728;2022-11-15T06:50:28;11.33;;;3.70;;
19084;SDS011;9675;51.538;6.728;2022-11-15T06:52:58;9.40;;;4.20;;
19084;SDS011;9675;51.538;6.728;2022-11-15T06:55:28;8.37;;;4.47;;
19084;SDS011;9675;51.538;6.728;2022-11-15T06:57:55;8.47;;;4.00;;
19084;SDS011;9675;51.538;6.728;2022-11-15T07:00:22;6.73;;;3.13;;
19084;SDS011;9675;51.538;6.728;2022-11-15T07:02:49;7.77;;;3.53;;
19084;SDS011;9675;51.538;6.728;2022-11-15T07:05:16;9.77;;;3.93;;
19084;SDS011;9675;51.538;6.728;2022-11-15T07:07:50;11.00;;;4.47;;
19084;SDS011;9675;51.538;6.728;2022-11-15T07:10:20;10.63;;;4.67;;
19084;SDS011;9675;51.538;6.728;2022-11-15T07:12:50;9.20;;;4.43;;
19084;SDS011;9675;51.538;6.728;2022-11-15T07:15:18;11.53;;;4.53;;
19084;SDS011;9675;51.538;6.728;2022-11-15T07:17:49;13.40;;;4.60;;
19084;SDS011;9675;51.538;6.728;2022-11-15T07:20:17;11.60;;;4.07;;
19084;SDS011;9675;51.538;6.728;2022-11-15T07:22:44;11.37;;;4.03;;
19084;SDS011;9675;51.538;6.728;2022-11-15T07:25:11;9.97;;;4.37;;
19084;SDS011;9675;51.538;6.728;2022-11-15T07:27:40;6.90;;;3.47;;
19084;SDS011;9675;51.538;6.728;2022-11-15T07:30:07;8.97;;;4.13;;
19084;SDS011;9675;51.538;6.728;2022-11-15T07:32:35;9.37;;;3.77;;
19084;SDS011;9675;51.538;6.728;2022-11-15T07:35:02;10.10;;;4.60;;
19084;SDS011;9675;51.538;6.728;2022-11-15T07:37:30;9.03;;;4.63;;
19084;SDS011;9675;51.538;6.728;2022-11-15T07:39:57;7.97;;;4.13;;
19084;SDS011;9675;51.538;6.728;2022-11-15T07:42:24;9.10;;;3.37;;
19084;SDS011;9675;51.538;6.728;2022-11-15T07:45:10;6.50;;;3.13;;
19084;SDS011;9675;51.538;6.728;2022-11-15T07:47:37;5.97;;;2.70;;
19084;SDS011;9675;51.538;6.728;2022-11-15T07:50:04;3.83;;;1.47;;
19084;SDS011;9675;51.538;6.728;2022-11-15T07:52:32;3.73;;;1.80;;
19084;SDS011;9675;51.538;6.728;2022-11-15T07:54:59;7.60;;;2.10;;
19084;SDS011;9675;51.538;6.728;2022-11-15T07:57:26;3.67;;;1.77;;
19084;SDS011;9675;51.538;6.728;2022-11-15T07:59:53;3.27;;;2.07;;
19084;SDS011;9675;51.538;6.728;2022-11-15T08:02:21;4.67;;;1.63;;
19084;SDS011;9675;51.538;6.728;2022-11-15T08:04:48;3.67;;;1.53;;
19084;SDS011;9675;51.538;6.728;2022-11-15T08:07:15;3.03;;;1.30;;
19084;SDS011;9675;51.538;6.728;2022-11-15T08:09:43;1.67;;;0.83;;
19084;SDS011;9675;51.538;6.728;2022-11-15T08:12:10;1.40;;;0.90;;
19084;SDS011;9675;51.538;6.728;2022-11-15T08:14:37;1.53;;;0.80;;
19084;SDS011;9675;51.538;6.728;2022-11-15T08:17:04;1.83;;;0.70;;
19084;SDS011;9675;51.538;6.728;2022-11-15T08:19:32;3.47;;;0.83;;
19084;SDS011;9675;51.538;6.728;2022-11-15T08:21:59;2.37;;;0.90;;
19084;SDS011;9675;51.538;6.728;2022-11-15T08:24:26;2.43;;;0.77;;
19084;SDS011;9675;51.538;6.728;2022-11-15T08:26:53;2.30;;;0.83;;
19084;SDS011;9675;51.538;6.728;2022-11-15T08:29:20;1.60;;;0.73;;
19084;SDS011;9675;51.538;6.728;2022-11-15T08:31:47;2.73;;;0.70;;
19084;SDS011;9675;51.538;6.728;2022-11-15T08:34:14;2.50;;;0.53;;
19084;SDS011;9675;51.538;6.728;2022-11-15T08:36:43;0.87;;;0.40;;
19084;SDS011;9675;51.538;6.728;2022-11-15T08:39:10;2.97;;;0.57;;
19084;SDS011;9675;51.538;6.728;2022-11-15T08:41:38;0.93;;;0.40;;
19084;SDS011;9675;51.538;6.728;2022-11-15T08:44:05;0.70;;;0.40;;
19084;SDS011;9675;51.538;6.728;2022-11-15T08:46:32;0.40;;;0.40;;
19084;SDS011;9675;51.538;6.728;2022-11-15T08:48:59;2.07;;;0.73;;
19084;SDS011;9675;51.538;6.728;2022-11-15T08:51:26;0.50;;;0.40;;
19084;SDS011;9675;51.538;6.728;2022-11-15T08:53:55;0.67;;;0.40;;
19084;SDS011;9675;51.538;6.728;2022-11-15T08:56:22;0.73;;;0.47;;
19084;SDS011;9675;51.538;6.728;2022-11-15T08:58:49;0.90;;;0.50;;
19084;SDS011;9675;51.538;6.728;2022-11-15T09:01:16;1.90;;;0.60;;
19084;SDS011;9675;51.538;6.728;2022-11-15T09:03:45;1.00;;;0.43;;
19084;SDS011;9675;51.538;6.728;2022-11-15T09:06:12;1.20;;;0.40;;
19084;SDS011;9675;51.538;6.728;2022-11-15T09:08:40;1.80;;;0.60;;
19084;SDS011;9675;51.538;6.728;2022-11-15T09:11:09;2.23;;;0.70;;
19084;SDS011;9675;51.538;6.728;2022-11-15T09:13:37;0.30;;;0.30;;
19084;SDS011;9675;51.538;6.728;2022-11-15T09:16:04;1.33;;;0.80;;
19084;SDS011;9675;51.538;6.728;2022-11-15T09:18:32;1.50;;;0.93;;
19084;SDS011;9675;51.538;6.728;2022-11-15T09:21:00;3.87;;;1.20;;
19084;SDS011;9675;51.538;6.728;2022-11-15T09:23:28;2.77;;;1.23;;
19084;SDS011;9675;51.538;6.728;2022-11-15T09:25:58;2.03;;;1.00;;
19084;SDS011;9675;51.538;6.728;2022-11-15T09:28:29;4.87;;;1.30;;
19084;SDS011;9675;51.538;6.728;2022-11-15T09:30:57;2.37;;;1.43;;
19084;SDS011;9675;51.538;6.728;2022-11-15T09:33:25;7.37;;;1.40;;
19084;SDS011;9675;51.538;6.728;2022-11-15T09:35:53;2.97;;;1.47;;
19084;SDS011;9675;51.538;6.728;2022-11-15T09:38:20;1.33;;;0.90;;
19084;SDS011;9675;51.538;6.728;2022-11-15T09:40:48;2.27;;;1.33;;
19084;SDS011;9675;51.538;6.728;2022-11-15T09:43:38;4.00;;;1.23;;
19084;SDS011;9675;51.538;6.728;2022-11-15T09:46:18;1.87;;;0.77;;
19084;SDS011;9675;51.538;6.728;2022-11-15T09:49:00;2.60;;;1.07;;
19084;SDS011;9675;51.538;6.728;2022-11-15T09:51:29;1.50;;;0.90;;
19084;SDS011;9675;51.538;6.728;2022-11-15T09:54:04;6.20;;;1.27;;
19084;SDS011;9675;51.538;6.728;2022-11-15T09:56:46;3.97;;;1.30;;
19084;SDS011;9675;51.538;6.728;2022-11-15T09:59:20;4.90;;;1.40;;
19084;SDS011;9675;51.538;6.728;2022-11-15T10:02:10;4.70;;;1.80;;
19084;SDS011;9675;51.538;6.728;2022-11-15T10:04:57;4.87;;;2.03;;
19084;SDS011;9675;51.538;6.728;2022-11-15T10:07:28;4.50;;;2.00;;
19084;SDS011;9675;51.538;6.728;2022-11-15T10:10:20;3.20;;;2.13;;
19084;SDS011;9675;51.538;6.728;2022-11-15T10:12:53;7.13;;;3.17;;
19084;SDS011;9675;51.538;6.728;2022-11-15T10:15:22;4.10;;;2.23;;
19084;SDS011;9675;51.538;6.728;2022-11-15T10:18:06;7.17;;;3.30;;
19084;SDS011;9675;51.538;6.728;2022-11-15T10:20:46;3.27;;;2.10;;
19084;SDS011;9675;51.538;6.728;2022-11-15T10:23:16;2.63;;;1.67;;
19084;SDS011;9675;51.538;6.728;2022-11-15T10:25:48;3.03;;;1.40;;
19084;SDS011;9675;51.538;6.728;2022-11-15T10:28:21;5.00;;;1.73;;
19084;SDS011;9675;51.538;6.728;2022-11-15T10:30:54;4.03;;;1.20;;
19084;SDS011;9675;51.538;6.728;2022-11-15T10:33:25;2.43;;;0.90;;
19084;SDS011;9675;51.538;6.728;2022-11-15T10:36:16;2.53;;;0.80;;
19084;SDS011;9675;51.538;6.728;2022-11-15T10:38:57;1.93;;;1.10;;
19084;SDS011;9675;51.538;6.728;2022-11-15T10:41:31;1.63;;;0.83;;
19084;SDS011;9675;51.538;6.728;2022-11-15T10:44:08;4.83;;;1.27;;
19084;SDS011;9675;51.538;6.728;2022-11-15T10:49:53;4.20;;;1.77;;
19084;SDS011;9675;51.538;6.728;2022-11-15T10:52:27;2.60;;;1.23;;
19084;SDS011;9675;51.538;6.728;2022-11-15T10:54:58;2.80;;;1.20;;
19084;SDS011;9675;51.538;6.728;2022-11-15T10:57:32;3.83;;;1.60;;
19084;SDS011;9675;51.538;6.728;2022-11-15T11:00:04;1.93;;;1.03;;
19084;SDS011;9675;51.538;6.728;2022-11-15T11:02:36;7.17;;;1.13;;
19084;SDS011;9675;51.538;6.728;2022-11-15T11:05:27;0.97;;;0.60;;
19084;SDS011;9675;51.538;6.728;2022-11-15T11:07:59;3.30;;;1.37;;
19084;SDS011;9675;51.538;6.728;2022-11-15T11:10:29;1.47;;;0.67;;
19084;SDS011;9675;51.538;6.728;2022-11-15T11:13:11;6.83;;;1.00;;
19084;SDS011;9675;51.538;6.728;2022-11-15T11:15:41;1.67;;;0.70;;
19084;SDS011;9675;51.538;6.728;2022-11-15T11:18:15;2.83;;;1.00;;
19084;SDS011;9675;51.538;6.728;2022-11-15T11:20:53;1.73;;;0.93;;
19084;SDS011;9675;51.538;6.728;2022-11-15T11:23:35;2.20;;;1.00;;
19084;SDS011;9675;51.538;6.728;2022-11-15T11:26:32;2.20;;;0.93;;
19084;SDS011;9675;51.538;6.728;2022-11-15T11:29:16;1.67;;;1.00;;
19084;SDS011;9675;51.538;6.728;2022-11-15T11:32:02;3.43;;;1.03;;
19084;SDS011;9675;51.538;6.728;2022-11-15T11:35:05;7.73;;;1.10;;
19084;SDS011;9675;51.538;6.728;2022-11-15T11:37:41;1.73;;;1.10;;
19084;SDS011;9675;51.538;6.728;2022-11-15T11:40:21;1.03;;;0.80;;
19084;SDS011;9675;51.538;6.728;2022-11-15T11:42:58;0.90;;;0.70;;
19084;SDS011;9675;51.538;6.728;2022-11-15T11:45:48;1.50;;;0.67;;
19084;SDS011;9675;51.538;6.728;2022-11-15T11:48:40;3.40;;;0.77;;
19084;SDS011;9675;51.538;6.728;2022-11-15T11:51:13;3.17;;;0.93;;
19084;SDS011;9675;51.538;6.728;2022-11-15T11:53:48;2.33;;;0.80;;
19084;SDS011;9675;51.538;6.728;2022-11-15T11:56:26;1.03;;;0.60;;
19084;SDS011;9675;51.538;6.728;2022-11-15T11:58:59;5.40;;;1.10;;
19084;SDS011;9675;51.538;6.728;2022-11-15T12:01:37;2.63;;;1.27;;
19084;SDS011;9675;51.538;6.728;2022-11-15T12:04:09;2.03;;;0.57;;
19084;SDS011;9675;51.538;6.728;2022-11-15T12:06:47;0.70;;;0.40;;
19084;SDS011;9675;51.538;6.728;2022-11-15T12:09:21;2.43;;;0.40;;
19084;SDS011;9675;51.538;6.728;2022-11-15T12:12:01;0.70;;;0.60;;
19084;SDS011;9675;51.538;6.728;2022-11-15T12:14:38;0.50;;;0.30;;
19084;SDS011;9675;51.538;6.728;2022-11-15T12:17:12;2.07;;;0.50;;
19084;SDS011;9675;51.538;6.728;2022-11-15T12:19:41;0.70;;;0.50;;
19084;SDS011;9675;51.538;6.728;2022-11-15T12:22:11;0.80;;;0.30;;
19084;SDS011;9675;51.538;6.728;2022-11-15T12:24:47;1.37;;;0.47;;
19084;SDS011;9675;51.538;6.728;2022-11-15T12:27:31;0.93;;;0.60;;
19084;SDS011;9675;51.538;6.728;2022-11-15T12:30:07;2.10;;;0.70;;
19084;SDS011;9675;51.538;6.728;2022-11-15T12:32:39;2.40;;;0.67;;
19084;SDS011;9675;51.538;6.728;2022-11-15T12:35:24;2.50;;;1.13;;
19084;SDS011;9675;51.538;6.728;2022-11-15T12:38:03;3.63;;;1.10;;
19084;SDS011;9675;51.538;6.728;2022-11-15T12:40:36;3.60;;;1.47;;
19084;SDS011;9675;51.538;6.728;2022-11-15T12:46:05;2.53;;;0.30;;
19084;SDS011;9675;51.538;6.728;2022-11-15T12:48:52;3.30;;;0.33;;
19084;SDS011;9675;51.538;6.728;2022-11-15T12:51:22;1.27;;;0.60;;
19084;SDS011;9675;51.538;6.728;2022-11-15T12:57:32;0.57;;;0.30;;
19084;SDS011;9675;51.538;6.728;2022-11-15T13:03:19;3.00;;;0.53;;
19084;SDS011;9675;51.538;6.728;2022-11-15T13:08:51;4.90;;;0.77;;
19084;SDS011;9675;51.538;6.728;2022-11-15T13:20:02;0.83;;;0.20;;
19084;SDS011;9675;51.538;6.728;2022-11-15T13:22:50;1.10;;;0.30;;
19084;SDS011;9675;51.538;6.728;2022-11-15T13:25:39;2.33;;;0.30;;
19084;SDS011;9675;51.538;6.728;2022-11-15T13:28:37;1.93;;;0.40;;
19084;SDS011;9675;51.538;6.728;2022-11-15T13:31:21;5.13;;;0.70;;
19084;SDS011;9675;51.538;6.728;2022-11-15T13:33:57;1.80;;;0.30;;
19084;SDS011;9675;51.538;6.728;2022-11-15T13:36:30;0.40;;;0.20;;
19084;SDS011;9675;51.538;6.728;2022-11-15T13:39:00;1.37;;;0.30;;
19084;SDS011;9675;51.538;6.728;2022-11-15T13:41:31;3.80;;;0.77;;
19084;SDS011;9675;51.538;6.728;2022-11-15T13:44:02;5.20;;;0.40;;
19084;SDS011;9675;51.538;6.728;2022-11-15T13:46:44;2.10;;;0.40;;
19084;SDS011;9675;51.538;6.728;2022-11-15T13:49:11;1.60;;;0.30;;
19084;SDS011;9675;51.538;6.728;2022-11-15T13:51:39;5.00;;;0.80;;
19084;SDS011;9675;51.538;6.728;2022-11-15T13:54:14;2.33;;;0.30;;
19084;SDS011;9675;51.538;6.728;2022-11-15T13:56:47;1.60;;;0.37;;
19084;SDS011;9675;51.538;6.728;2022-11-15T13:59:23;1.33;;;0.40;;
19084;SDS011;9675;51.538;6.728;2022-11-15T14:01:53;0.87;;;0.37;;
19084;SDS011;9675;51.538;6.728;2022-11-15T14:04:22;0.20;;;0.20;;
19084;SDS011;9675;51.538;6.728;2022-11-15T14:06:55;3.60;;;0.40;;
19084;SDS011;9675;51.538;6.728;2022-11-15T14:09:32;2.47;;;0.53;;
19084;SDS011;9675;51.538;6.728;2022-11-15T14:12:22;2.40;;;0.30;;
19084;SDS011;9675;51.538;6.728;2022-11-15T14:14:56;0.33;;;0.30;;
19084;SDS011;9675;51.538;6.728;2022-11-15T14:17:35;0.57;;;0.20;;
19084;SDS011;9675;51.538;6.728;2022-11-15T14:20:26;0.30;;;0.30;;
19084;SDS011;9675;51.538;6.728;2022-11-15T14:22:57;3.50;;;0.70;;
19084;SDS011;9675;51.538;6.728;2022-11-15T14:25:26;1.67;;;0.40;;
19084;SDS011;9675;51.538;6.728;2022-11-15T14:28:09;0.20;;;0.20;;
19084;SDS011;9675;51.538;6.728;2022-11-15T14:30:59;2.10;;;0.60;;
19084;SDS011;9675;51.538;6.728;2022-11-15T14:33:28;1.93;;;0.20;;
19084;SDS011;9675;51.538;6.728;2022-11-15T14:36:02;6.30;;;0.50;;
19084;SDS011;9675;51.538;6.728;2022-11-15T14:38:32;1.77;;;0.50;;
19084;SDS011;9675;51.538;6.728;2022-11-15T14:40:59;1.73;;;0.40;;
19084;SDS011;9675;51.538;6.728;2022-11-15T14:43:26;2.00;;;0.43;;
19084;SDS011;9675;51.538;6.728;2022-11-15T14:45:53;1.57;;;0.47;;
19084;SDS011;9675;51.538;6.728;2022-11-15T14:48:22;1.13;;;0.33;;
19084;SDS011;9675;51.538;6.728;2022-11-15T14:50:49;0.73;;;0.40;;
19084;SDS011;9675;51.538;6.728;2022-11-15T14:53:17;4.00;;;0.60;;
19084;SDS011;9675;51.538;6.728;2022-11-15T14:55:44;4.83;;;1.67;;
19084;SDS011;9675;51.538;6.728;2022-11-15T14:58:12;2.43;;;0.73;;
19084;SDS011;9675;51.538;6.728;2022-11-15T15:00:39;1.70;;;0.50;;
19084;SDS011;9675;51.538;6.728;2022-11-15T15:03:07;1.40;;;0.30;;
19084;SDS011;9675;51.538;6.728;2022-11-15T15:05:37;0.77;;;0.50;;
19084;SDS011;9675;51.538;6.728;2022-11-15T15:08:06;6.50;;;0.40;;
19084;SDS011;9675;51.538;6.728;2022-11-15T15:10:35;1.80;;;0.80;;
19084;SDS011;9675;51.538;6.728;2022-11-15T15:13:04;0.67;;;0.47;;
19084;SDS011;9675;51.538;6.728;2022-11-15T15:15:32;1.07;;;0.50;;
19084;SDS011;9675;51.538;6.728;2022-11-15T15:18:02;2.87;;;1.17;;
19084;SDS011;9675;51.538;6.728;2022-11-15T15:20:30;2.10;;;1.00;;
19084;SDS011;9675;51.538;6.728;2022-11-15T15:22:59;2.10;;;0.60;;
19084;SDS011;9675;51.538;6.728;2022-11-15T15:25:27;5.43;;;1.40;;
19084;SDS011;9675;51.538;6.728;2022-11-15T15:27:56;1.90;;;0.90;;
19084;SDS011;9675;51.538;6.728;2022-11-15T15:30:24;5.27;;;0.97;;
19084;SDS011;9675;51.538;6.728;2022-11-15T15:32:53;2.93;;;1.07;;
19084;SDS011;9675;51.538;6.728;2022-11-15T15:35:21;2.20;;;1.00;;
19084;SDS011;9675;51.538;6.728;2022-11-15T15:37:48;2.50;;;1.17;;
19084;SDS011;9675;51.538;6.728;2022-11-15T15:40:18;4.17;;;1.20;;
19084;SDS011;9675;51.538;6.728;2022-11-15T15:42:49;0.60;;;0.60;;
19084;SDS011;9675;51.538;6.728;2022-11-15T15:45:17;2.30;;;0.90;;
19084;SDS011;9675;51.538;6.728;2022-11-15T15:47:45;3.03;;;0.73;;
19084;SDS011;9675;51.538;6.728;2022-11-15T15:50:16;1.80;;;0.87;;
19084;SDS011;9675;51.538;6.728;2022-11-15T15:52:48;1.23;;;0.73;;
19084;SDS011;9675;51.538;6.728;2022-11-15T15:55:17;2.27;;;0.80;;